Time;durP1;ratioP1;P1;durP2;ratioP2;P2;SDS_P1;SDS_P2;PMS_P1;PMS_P2;Temp;Humidity;BMP_temperature;BMP_pressure;BME280_temperature;BME280_humidity;BME280_pressure;Samples;Min_cycle;Max_cycle;Signal;HPM_P1;HPM_P2
2022/07/01 00:02:10;;;;;;;0.30;0.30;;;;;;;;;;6249652;22;20177;-85
2022/07/01 00:04:47;;;;;;;0.30;0.30;;;;;;;;;;6249533;22;20206;-84
2022/07/01 00:07:16;;;;;;;0.40;0.40;;;;;;;;;;6249160;22;20189;-84
2022/07/01 00:09:44;;;;;;;0.40;0.40;;;;;;;;;;6249704;22;20176;-84
2022/07/01 00:12:13;;;;;;;0.40;0.40;;;;;;;;;;6249423;22;20177;-84
2022/07/01 00:14:42;;;;;;;0.37;0.37;;;;;;;;;;6249919;22;20189;-85
2022/07/01 00:17:10;;;;;;;0.40;0.40;;;;;;;;;;6251896;22;20172;-84
2022/07/01 00:19:39;;;;;;;0.40;0.40;;;;;;;;;;6251479;22;20184;-84
2022/07/01 00:22:09;;;;;;;0.40;0.40;;;;;;;;;;6251185;22;20188;-84
2022/07/01 00:24:38;;;;;;;0.40;0.40;;;;;;;;;;6251466;22;20219;-84
2022/07/01 00:27:06;;;;;;;0.40;0.40;;;;;;;;;;6251272;22;20218;-84
2022/07/01 00:29:35;;;;;;;0.40;0.40;;;;;;;;;;6251044;22;20208;-84
2022/07/01 00:32:04;;;;;;;0.40;0.40;;;;;;;;;;6251866;22;20179;-84
2022/07/01 00:34:33;;;;;;;0.40;0.40;;;;;;;;;;6251631;22;20274;-84
2022/07/01 00:37:01;;;;;;;0.40;0.40;;;;;;;;;;6251501;22;20176;-85
2022/07/01 00:39:33;;;;;;;0.40;0.40;;;;;;;;;;6251110;22;20176;-85
2022/07/01 00:42:03;;;;;;;0.40;0.40;;;;;;;;;;6251582;22;20211;-85
2022/07/01 00:44:32;;;;;;;0.40;0.40;;;;;;;;;;6251206;22;20206;-85
2022/07/01 00:47:01;;;;;;;0.40;0.40;;;;;;;;;;6277576;22;20200;-85
2022/07/01 00:49:30;;;;;;;0.40;0.40;;;;;;;;;;6251361;22;20172;-85
2022/07/01 00:51:59;;;;;;;0.40;0.40;;;;;;;;;;6251586;22;20180;-85
2022/07/01 00:54:27;;;;;;;0.40;0.40;;;;;;;;;;6251336;22;20225;-85
2022/07/01 00:56:57;;;;;;;0.40;0.40;;;;;;;;;;6250865;22;20170;-85
2022/07/01 00:59:26;;;;;;;0.40;0.40;;;;;;;;;;6251250;22;20187;-85
2022/07/01 01:01:54;;;;;;;0.40;0.40;;;;;;;;;;6277034;22;20183;-85
2022/07/01 01:04:23;;;;;;;0.40;0.40;;;;;;;;;;6251162;22;20197;-85
2022/07/01 01:06:51;;;;;;;0.40;0.40;;;;;;;;;;6277783;22;20263;-85
2022/07/01 01:09:20;;;;;;;0.40;0.40;;;;;;;;;;6251139;22;20168;-85
2022/07/01 01:11:48;;;;;;;0.40;0.40;;;;;;;;;;6277869;22;20176;-85
2022/07/01 01:14:21;;;;;;;0.40;0.40;;;;;;;;;;6251323;22;20185;-85
2022/07/01 01:16:49;;;;;;;0.33;0.33;;;;;;;;;;6250843;22;20179;-85
2022/07/01 01:19:18;;;;;;;0.40;0.40;;;;;;;;;;6250993;22;20232;-85
2022/07/01 01:21:48;;;;;;;0.40;0.40;;;;;;;;;;6251177;22;20192;-85
2022/07/01 01:24:16;;;;;;;0.40;0.40;;;;;;;;;;6250963;22;20204;-85
2022/07/01 01:26:44;;;;;;;0.40;0.40;;;;;;;;;;6277532;22;20196;-85
2022/07/01 01:29:13;;;;;;;0.40;0.40;;;;;;;;;;6277707;22;20259;-85
2022/07/01 01:31:41;;;;;;;0.40;0.40;;;;;;;;;;6277414;22;20271;-86
2022/07/01 01:34:10;;;;;;;0.40;0.40;;;;;;;;;;6251076;22;20172;-86
2022/07/01 01:36:39;;;;;;;0.40;0.40;;;;;;;;;;6250762;22;20181;-85
2022/07/01 01:39:10;;;;;;;0.40;0.40;;;;;;;;;;6250797;22;20187;-86
2022/07/01 01:41:39;;;;;;;0.40;0.40;;;;;;;;;;6277304;22;20203;-86
2022/07/01 01:44:07;;;;;;;0.40;0.40;;;;;;;;;;6250713;22;20265;-85
2022/07/01 01:46:36;;;;;;;0.40;0.40;;;;;;;;;;6277342;22;20176;-86
2022/07/01 01:49:05;;;;;;;0.50;0.50;;;;;;;;;;6250917;22;20172;-86
2022/07/01 01:51:33;;;;;;;0.40;0.40;;;;;;;;;;6250835;22;20268;-86
2022/07/01 01:54:02;;;;;;;0.30;0.30;;;;;;;;;;6251019;22;20186;-86
2022/07/01 01:56:32;;;;;;;0.40;0.40;;;;;;;;;;6250770;22;20173;-85
2022/07/01 01:59:00;;;;;;;0.40;0.40;;;;;;;;;;6249686;22;20175;-85
2022/07/01 02:01:29;;;;;;;0.40;0.40;;;;;;;;;;6277142;22;20197;-85
2022/07/01 02:03:58;;;;;;;0.40;0.40;;;;;;;;;;6277198;22;20202;-86
2022/07/01 02:06:27;;;;;;;0.40;0.40;;;;;;;;;;6250044;22;20187;-85
2022/07/01 02:08:56;;;;;;;0.40;0.40;;;;;;;;;;6250670;22;20216;-85
2022/07/01 02:11:24;;;;;;;0.40;0.40;;;;;;;;;;6250604;22;20229;-86
2022/07/01 02:13:54;;;;;;;0.40;0.40;;;;;;;;;;6250447;22;20176;-86
2022/07/01 02:16:22;;;;;;;0.40;0.40;;;;;;;;;;6250486;22;20172;-86
2022/07/01 02:18:51;;;;;;;0.40;0.40;;;;;;;;;;6277206;22;20191;-85
2022/07/01 02:21:19;;;;;;;0.30;0.30;;;;;;;;;;6250404;22;20191;-86
2022/07/01 02:23:48;;;;;;;0.33;0.33;;;;;;;;;;6250141;22;20176;-86
2022/07/01 02:26:16;;;;;;;0.40;0.40;;;;;;;;;;6250810;22;20183;-85
2022/07/01 02:28:45;;;;;;;0.40;0.40;;;;;;;;;;6249858;22;20201;-85
2022/07/01 02:31:14;;;;;;;0.30;0.30;;;;;;;;;;6250466;22;20185;-86
2022/07/01 02:33:43;;;;;;;0.40;0.40;;;;;;;;;;6277249;22;20183;-86
2022/07/01 02:36:11;;;;;;;0.37;0.37;;;;;;;;;;6250551;22;20179;-86
2022/07/01 02:38:40;;;;;;;0.40;0.40;;;;;;;;;;6249953;22;20186;-85
2022/07/01 02:41:09;;;;;;;0.40;0.40;;;;;;;;;;6250656;22;20175;-86
2022/07/01 02:43:38;;;;;;;0.30;0.30;;;;;;;;;;6276930;22;20176;-85
2022/07/01 02:46:06;;;;;;;0.40;0.40;;;;;;;;;;6249931;22;20180;-85
2022/07/01 02:48:36;;;;;;;0.40;0.40;;;;;;;;;;6249916;22;20195;-85
2022/07/01 02:51:05;;;;;;;0.40;0.40;;;;;;;;;;6250447;22;20180;-85
2022/07/01 02:53:33;;;;;;;0.40;0.40;;;;;;;;;;6249974;22;20180;-85
2022/07/01 02:56:02;;;;;;;0.30;0.30;;;;;;;;;;6250209;22;20187;-85
2022/07/01 02:58:30;;;;;;;0.40;0.40;;;;;;;;;;6276667;22;20172;-85
2022/07/01 03:00:59;;;;;;;0.43;0.43;;;;;;;;;;6250406;22;20187;-86
2022/07/01 03:03:27;;;;;;;0.40;0.40;;;;;;;;;;6276570;22;20193;-85
2022/07/01 03:05:57;;;;;;;0.33;0.33;;;;;;;;;;6277182;22;20178;-85
2022/07/01 03:08:25;;;;;;;0.40;0.40;;;;;;;;;;6249855;22;20207;-85
2022/07/01 03:10:54;;;;;;;0.40;0.40;;;;;;;;;;6250216;22;20187;-86
2022/07/01 03:13:22;;;;;;;0.30;0.30;;;;;;;;;;6249742;22;20180;-85
2022/07/01 03:15:50;;;;;;;0.33;0.33;;;;;;;;;;6250260;22;20191;-85
2022/07/01 03:18:19;;;;;;;0.40;0.40;;;;;;;;;;6276515;22;20196;-85
2022/07/01 03:20:49;;;;;;;0.40;0.40;;;;;;;;;;6249795;22;20179;-85
2022/07/01 03:23:18;;;;;;;0.40;0.40;;;;;;;;;;6249910;22;20179;-85
2022/07/01 03:25:47;;;;;;;0.30;0.30;;;;;;;;;;6249990;22;20172;-85
2022/07/01 03:28:17;;;;;;;0.40;0.40;;;;;;;;;;6249923;22;20200;-85
2022/07/01 03:30:45;;;;;;;0.40;0.40;;;;;;;;;;6249620;22;20208;-85
2022/07/01 03:33:13;;;;;;;0.40;0.40;;;;;;;;;;6249916;22;20249;-85
2022/07/01 03:35:45;;;;;;;0.37;0.37;;;;;;;;;;6276828;22;20262;-85
2022/07/01 03:38:14;;;;;;;0.40;0.40;;;;;;;;;;6249827;22;20168;-85
2022/07/01 03:40:44;;;;;;;0.40;0.40;;;;;;;;;;6250037;22;20183;-85
2022/07/01 03:43:12;;;;;;;0.30;0.30;;;;;;;;;;6276408;22;20194;-85
2022/07/01 03:45:46;;;;;;;0.40;0.40;;;;;;;;;;6276296;22;20175;-85
2022/07/01 03:48:16;;;;;;;0.40;0.40;;;;;;;;;;6276026;22;20188;-85
2022/07/01 03:50:44;;;;;;;0.40;0.40;;;;;;;;;;6249517;22;20183;-85
2022/07/01 03:56:00;;;;;;;0.40;0.40;;;;;;;;;;6275379;22;20176;-85
2022/07/01 03:58:28;;;;;;;0.40;0.40;;;;;;;;;;6249518;22;20172;-85
2022/07/01 04:00:57;;;;;;;0.70;0.70;;;;;;;;;;6249898;22;20180;-85
2022/07/01 04:03:25;;;;;;;0.40;0.40;;;;;;;;;;6249545;22;20195;-85
2022/07/01 04:05:54;;;;;;;0.40;0.40;;;;;;;;;;6250144;22;20172;-85
2022/07/01 04:08:23;;;;;;;0.40;0.40;;;;;;;;;;6276215;22;20196;-85
2022/07/01 04:10:53;;;;;;;0.40;0.40;;;;;;;;;;6250005;22;20181;-85
2022/07/01 04:13:23;;;;;;;0.40;0.40;;;;;;;;;;6249084;22;20257;-85
2022/07/01 04:15:59;;;;;;;0.40;0.40;;;;;;;;;;6250030;22;20183;-85
2022/07/01 04:18:28;;;;;;;0.40;0.40;;;;;;;;;;6249467;22;20172;-85
2022/07/01 04:23:43;;;;;;;0.40;0.40;;;;;;;;;;6276231;22;20187;-85
2022/07/01 04:26:11;;;;;;;0.40;0.40;;;;;;;;;;6249504;22;20206;-85
2022/07/01 04:29:01;;;;;;;0.40;0.40;;;;;;;;;;6275965;22;20207;-85
2022/07/01 04:31:30;;;;;;;0.40;0.40;;;;;;;;;;6249398;22;20376;-85
2022/07/01 04:33:58;;;;;;;0.40;0.40;;;;;;;;;;6249517;22;20172;-85
2022/07/01 04:36:28;;;;;;;0.40;0.40;;;;;;;;;;6275080;22;20222;-85
2022/07/01 04:38:56;;;;;;;1.03;1.03;;;;;;;;;;6249729;22;20169;-85
2022/07/01 04:44:12;;;;;;;0.40;0.40;;;;;;;;;;6274878;22;20172;-85
2022/07/01 04:46:40;;;;;;;0.30;0.30;;;;;;;;;;6276579;22;20176;-85
2022/07/01 04:49:09;;;;;;;0.40;0.40;;;;;;;;;;6249470;22;20283;-85
2022/07/01 04:51:37;;;;;;;0.40;0.40;;;;;;;;;;6276199;22;20172;-86
2022/07/01 04:54:07;;;;;;;0.40;0.40;;;;;;;;;;6249371;22;20169;-85
2022/07/01 04:56:35;;;;;;;0.40;0.40;;;;;;;;;;6249362;22;20199;-85
2022/07/01 04:59:12;;;;;;;0.50;0.50;;;;;;;;;;6249198;22;20227;-86
2022/07/01 05:01:41;;;;;;;0.40;0.40;;;;;;;;;;6249321;22;20178;-85
2022/07/01 05:04:10;;;;;;;0.40;0.40;;;;;;;;;;6250820;22;20193;-85
2022/07/01 05:06:38;;;;;;;0.40;0.40;;;;;;;;;;6251083;22;20213;-85
2022/07/01 05:09:07;;;;;;;0.40;0.40;;;;;;;;;;6251419;22;20195;-85
2022/07/01 05:11:35;;;;;;;0.40;0.40;;;;;;;;;;6251360;22;20177;-85
2022/07/01 05:14:04;;;;;;;0.40;0.40;;;;;;;;;;6250956;22;20177;-86
2022/07/01 05:16:34;;;;;;;0.37;0.37;;;;;;;;;;6251026;22;20255;-85
2022/07/01 05:21:58;;;;;;;0.30;0.30;;;;;;;;;;6251084;22;20269;-85
2022/07/01 05:24:31;;;;;;;0.37;0.37;;;;;;;;;;6251284;22;20169;-85
2022/07/01 05:27:01;;;;;;;0.40;0.40;;;;;;;;;;6251029;22;20176;-85
2022/07/01 05:29:29;;;;;;;0.40;0.40;;;;;;;;;;6250098;22;20202;-85
2022/07/01 05:31:59;;;;;;;0.40;0.40;;;;;;;;;;6250435;22;20176;-86
2022/07/01 05:34:28;;;;;;;0.40;0.40;;;;;;;;;;6250374;22;20223;-85
2022/07/01 05:36:56;;;;;;;0.30;0.30;;;;;;;;;;6277658;22;20197;-86
2022/07/01 05:39:25;;;;;;;0.37;0.37;;;;;;;;;;6251034;22;20169;-86
2022/07/01 05:41:56;;;;;;;0.37;0.37;;;;;;;;;;6250642;22;20231;-85
2022/07/01 05:44:25;;;;;;;0.40;0.40;;;;;;;;;;6250594;22;20204;-85
2022/07/01 05:46:53;;;;;;;0.30;0.30;;;;;;;;;;6277479;22;20176;-86
2022/07/01 05:49:23;;;;;;;0.40;0.40;;;;;;;;;;6250992;22;20250;-85
2022/07/01 05:51:52;;;;;;;0.30;0.30;;;;;;;;;;6250869;22;20173;-85
2022/07/01 05:54:20;;;;;;;0.30;0.30;;;;;;;;;;6277625;22;20183;-85
2022/07/01 05:56:49;;;;;;;0.30;0.30;;;;;;;;;;6250613;22;20177;-86
2022/07/01 05:59:17;;;;;;;0.30;0.30;;;;;;;;;;6277229;22;20162;-85
2022/07/01 06:01:46;;;;;;;10.83;6.97;;;;;;;;;;6250707;22;20256;-85
2022/07/01 06:04:15;;;;;;;9.50;4.50;;;;;;;;;;6250429;22;20282;-85
2022/07/01 06:06:45;;;;;;;9.77;5.17;;;;;;;;;;6250256;22;20173;-85
2022/07/01 06:09:13;;;;;;;7.83;2.87;;;;;;;;;;6250356;22;20173;-85
2022/07/01 06:11:42;;;;;;;8.47;3.70;;;;;;;;;;6250811;22;20180;-85
2022/07/01 06:14:10;;;;;;;6.70;3.27;;;;;;;;;;6250419;22;20177;-85
2022/07/01 06:16:39;;;;;;;4.37;2.87;;;;;;;;;;6277287;22;20207;-85
2022/07/01 06:19:13;;;;;;;5.63;2.73;;;;;;;;;;6275895;22;20169;-84
2022/07/01 06:21:42;;;;;;;8.67;3.50;;;;;;;;;;6250071;22;20200;-85
2022/07/01 06:24:12;;;;;;;4.93;2.40;;;;;;;;;;6250330;22;20257;-84
2022/07/01 06:26:40;;;;;;;6.97;2.63;;;;;;;;;;6249969;22;20180;-85
2022/07/01 06:29:09;;;;;;;4.97;2.13;;;;;;;;;;6250006;22;20215;-85
2022/07/01 06:31:38;;;;;;;12.03;2.03;;;;;;;;;;6250366;22;20174;-85
2022/07/01 06:34:06;;;;;;;3.63;2.07;;;;;;;;;;6277412;22;20173;-85
2022/07/01 06:36:35;;;;;;;3.73;2.47;;;;;;;;;;6249766;22;20177;-85
2022/07/01 06:39:03;;;;;;;5.60;2.43;;;;;;;;;;6250696;22;20175;-84
2022/07/01 06:41:33;;;;;;;6.10;0.73;;;;;;;;;;6249886;22;20170;-85
2022/07/01 06:44:04;;;;;;;8.73;2.30;;;;;;;;;;6250526;22;20174;-83
2022/07/01 06:46:33;;;;;;;1.63;1.53;;;;;;;;;;6249684;22;20173;-83
2022/07/01 06:49:02;;;;;;;5.63;2.30;;;;;;;;;;6250093;22;20231;-82
2022/07/01 06:51:30;;;;;;;8.00;2.83;;;;;;;;;;6249768;22;20195;-82
2022/07/01 06:53:58;;;;;;;12.57;3.13;;;;;;;;;;6249775;22;20169;-81
2022/07/01 06:56:27;;;;;;;3.30;2.40;;;;;;;;;;6276706;22;20178;-82
2022/07/01 06:58:57;;;;;;;8.40;2.33;;;;;;;;;;6250241;22;20180;-82
2022/07/01 07:01:25;;;;;;;6.97;3.13;;;;;;;;;;6276688;22;20199;-83
2022/07/01 07:03:54;;;;;;;2.37;1.93;;;;;;;;;;6276698;22;20193;-83
2022/07/01 07:06:22;;;;;;;2.30;1.70;;;;;;;;;;6249855;22;20192;-82
2022/07/01 07:08:51;;;;;;;2.47;1.77;;;;;;;;;;6250125;22;20252;-83
2022/07/01 07:11:19;;;;;;;0.77;0.77;;;;;;;;;;6250146;22;20192;-84
2022/07/01 07:13:48;;;;;;;3.10;1.77;;;;;;;;;;6250408;22;20252;-83
2022/07/01 07:16:20;;;;;;;2.97;1.50;;;;;;;;;;6249719;22;20179;-84
2022/07/01 07:18:49;;;;;;;3.63;2.73;;;;;;;;;;6249755;22;20181;-83
2022/07/01 07:21:17;;;;;;;7.20;2.20;;;;;;;;;;6250172;22;20233;-83
2022/07/01 07:23:46;;;;;;;2.53;2.30;;;;;;;;;;6249860;22;20197;-83
2022/07/01 07:26:14;;;;;;;7.40;2.07;;;;;;;;;;6249701;22;20235;-83
2022/07/01 07:28:43;;;;;;;7.90;4.30;;;;;;;;;;6249478;22;20269;-83
2022/07/01 07:31:13;;;;;;;2.17;1.67;;;;;;;;;;6218514;23;20295;-83
2022/07/01 07:33:43;;;;;;;1.87;1.10;;;;;;;;;;6193769;23;20229;-83
2022/07/01 07:36:11;;;;;;;2.13;1.47;;;;;;;;;;6193794;23;20202;-83
2022/07/01 07:38:40;;;;;;;5.20;3.40;;;;;;;;;;6092885;23;20183;-83
2022/07/01 07:41:08;;;;;;;8.30;4.23;;;;;;;;;;6193839;23;20173;-83
2022/07/01 07:43:37;;;;;;;1.73;1.63;;;;;;;;;;6219423;23;20186;-83
2022/07/01 07:46:05;;;;;;;1.90;1.13;;;;;;;;;;6193509;23;20191;-83
2022/07/01 07:48:42;;;;;;;1.43;1.33;;;;;;;;;;6191555;23;20190;-83
2022/07/01 07:51:16;;;;;;;1.70;1.20;;;;;;;;;;6191810;23;20198;-84
2022/07/01 07:53:53;;;;;;;2.43;1.20;;;;;;;;;;6193961;23;20185;-83
2022/07/01 07:56:21;;;;;;;0.90;0.90;;;;;;;;;;6193978;23;20180;-84
2022/07/01 07:58:57;;;;;;;1.10;1.00;;;;;;;;;;6190807;23;20182;-83
2022/07/01 08:01:26;;;;;;;4.20;1.60;;;;;;;;;;6192624;23;20179;-83
2022/07/01 08:03:57;;;;;;;3.57;1.60;;;;;;;;;;6216963;23;20221;-83
2022/07/01 08:06:29;;;;;;;1.83;1.63;;;;;;;;;;6191741;23;20185;-84
2022/07/01 08:08:58;;;;;;;6.53;1.70;;;;;;;;;;6192817;23;20174;-83
2022/07/01 08:11:29;;;;;;;1.30;1.20;;;;;;;;;;6192786;23;20221;-83
2022/07/01 08:13:58;;;;;;;1.03;0.93;;;;;;;;;;6191465;23;20182;-83
2022/07/01 08:16:27;;;;;;;2.30;2.10;;;;;;;;;;6089755;23;20187;-83
2022/07/01 08:18:56;;;;;;;2.87;1.83;;;;;;;;;;6189253;23;20194;-82
2022/07/01 08:21:24;;;;;;;1.07;0.80;;;;;;;;;;6190499;23;20265;-83
2022/07/01 08:23:54;;;;;;;1.33;1.23;;;;;;;;;;6088956;23;20514;-83
2022/07/01 08:26:23;;;;;;;2.00;1.43;;;;;;;;;;6189475;23;20229;-82
2022/07/01 08:28:52;;;;;;;5.77;1.00;;;;;;;;;;6197368;22;20203;-83
2022/07/01 08:31:26;;;;;;;1.97;1.13;;;;;;;;;;6244813;22;20209;-84
2022/07/01 08:33:57;;;;;;;1.80;0.90;;;;;;;;;;6271725;22;20166;-84
2022/07/01 08:36:26;;;;;;;2.90;1.10;;;;;;;;;;6273981;22;20239;-84
2022/07/01 08:38:56;;;;;;;2.27;1.10;;;;;;;;;;6250791;22;20184;-83
2022/07/01 08:41:26;;;;;;;1.83;0.97;;;;;;;;;;6276884;22;20173;-83
2022/07/01 08:43:55;;;;;;;3.60;2.40;;;;;;;;;;6248529;22;20179;-85
2022/07/01 08:46:23;;;;;;;2.03;1.37;;;;;;;;;;6248028;22;20271;-85
2022/07/01 08:48:52;;;;;;;1.83;1.13;;;;;;;;;;6246925;22;20187;-85
2022/07/01 08:51:21;;;;;;;0.80;0.80;;;;;;;;;;6248115;22;20244;-85
2022/07/01 08:54:15;;;;;;;;;;;;;;;;;;;;;
2022/07/01 08:56:45;;;;;;;1.40;0.60;;;;;;;;;;6273203;22;20344;-85
2022/07/01 08:59:27;;;;;;;5.37;1.20;;;;;;;;;;6247774;22;20180;-84
2022/07/01 09:01:58;;;;;;;3.77;2.00;;;;;;;;;;6247726;22;20233;-84
2022/07/01 09:04:30;;;;;;;2.67;1.10;;;;;;;;;;6274213;22;20279;-85
2022/07/01 09:07:05;;;;;;;2.40;2.20;;;;;;;;;;6248109;22;20188;-85
2022/07/01 09:09:37;;;;;;;2.00;1.83;;;;;;;;;;6251255;22;20175;-85
2022/07/01 09:12:08;;;;;;;3.03;1.87;;;;;;;;;;6249962;22;20204;-85
2022/07/01 09:14:39;;;;;;;2.83;1.90;;;;;;;;;;6249558;22;20184;-86
2022/07/01 09:17:20;;;;;;;4.37;1.27;;;;;;;;;;6247975;22;20179;-84
2022/07/01 09:19:51;;;;;;;2.27;1.13;;;;;;;;;;6248841;22;20174;-84
2022/07/01 09:22:22;;;;;;;4.23;1.63;;;;;;;;;;6250151;22;20169;-84
2022/07/01 09:24:53;;;;;;;1.50;0.97;;;;;;;;;;6249912;22;20180;-84
2022/07/01 09:27:21;;;;;;;2.73;1.03;;;;;;;;;;6249029;22;20187;-84
2022/07/01 09:29:51;;;;;;;4.83;1.13;;;;;;;;;;6277092;22;20252;-84
2022/07/01 09:32:24;;;;;;;2.03;1.00;;;;;;;;;;6249049;22;20190;-83
2022/07/01 09:34:55;;;;;;;3.40;1.60;;;;;;;;;;6250291;22;20180;-83
2022/07/01 09:37:26;;;;;;;0.97;0.80;;;;;;;;;;6248410;22;20194;-85
2022/07/01 09:39:57;;;;;;;2.23;1.47;;;;;;;;;;6250673;22;20271;-85
2022/07/01 09:42:32;;;;;;;0.67;0.67;;;;;;;;;;6250165;22;20197;-85
2022/07/01 09:45:02;;;;;;;3.40;0.90;;;;;;;;;;6248685;22;20487;-85
2022/07/01 09:47:33;;;;;;;2.70;1.63;;;;;;;;;;6248328;22;20186;-85
2022/07/01 09:50:09;;;;;;;5.80;5.40;;;;;;;;;;6247811;22;20166;-83
2022/07/01 09:52:39;;;;;;;6.10;1.57;;;;;;;;;;6248002;22;20248;-84
2022/07/01 09:55:12;;;;;;;0.80;0.80;;;;;;;;;;6247443;22;20180;-84
2022/07/01 09:57:41;;;;;;;1.30;1.20;;;;;;;;;;6247492;22;20185;-84
2022/07/01 10:00:10;;;;;;;7.23;2.27;;;;;;;;;;6247583;22;20213;-85
2022/07/01 10:02:40;;;;;;;2.80;0.80;;;;;;;;;;6248288;22;20172;-85
2022/07/01 10:05:10;;;;;;;3.80;1.50;;;;;;;;;;6249205;22;20263;-85
2022/07/01 10:07:43;;;;;;;2.63;0.60;;;;;;;;;;6273547;22;20186;-84
2022/07/01 10:10:20;;;;;;;1.27;1.17;;;;;;;;;;6247654;22;20172;-85
2022/07/01 10:12:50;;;;;;;3.50;1.80;;;;;;;;;;6247913;22;20279;-84
2022/07/01 10:15:20;;;;;;;0.80;0.80;;;;;;;;;;6246710;22;20177;-85
2022/07/01 10:17:49;;;;;;;1.30;1.20;;;;;;;;;;6248050;22;20178;-85
2022/07/01 10:20:19;;;;;;;3.53;1.33;;;;;;;;;;6248606;22;20184;-85
2022/07/01 10:22:51;;;;;;;3.50;1.23;;;;;;;;;;6247664;22;20186;-85
2022/07/01 10:25:36;;;;;;;0.60;0.50;;;;;;;;;;6247606;22;20172;-85
2022/07/01 10:28:29;;;;;;;4.33;1.43;;;;;;;;;;6249284;22;20205;-86
2022/07/01 10:31:02;;;;;;;1.43;0.93;;;;;;;;;;6250327;22;20213;-88
2022/07/01 10:33:37;;;;;;;2.63;0.90;;;;;;;;;;6255654;22;20224;-87
2022/07/01 10:36:16;;;;;;;4.40;1.10;;;;;;;;;;6277184;22;20228;-88
2022/07/01 10:39:09;;;;;;;1.50;1.40;;;;;;;;;;6248505;22;20183;-85
2022/07/01 10:41:57;;;;;;;2.50;1.67;;;;;;;;;;6274832;22;20180;-86
2022/07/01 10:45:05;;;;;;;2.47;0.87;;;;;;;;;;6248688;22;20231;-87
2022/07/01 10:47:34;;;;;;;3.47;1.47;;;;;;;;;;6251345;22;20183;-87
2022/07/01 10:50:07;;;;;;;1.17;0.83;;;;;;;;;;6248203;22;20198;-86
2022/07/01 10:52:36;;;;;;;1.30;1.00;;;;;;;;;;6247923;22;20198;-85
2022/07/01 10:55:14;;;;;;;1.33;0.63;;;;;;;;;;6248849;22;20280;-83
2022/07/01 10:57:55;;;;;;;0.43;0.43;;;;;;;;;;6247258;22;20209;-85
2022/07/01 11:00:33;;;;;;;0.73;0.73;;;;;;;;;;6273341;22;20185;-86
2022/07/01 11:03:23;;;;;;;2.17;1.03;;;;;;;;;;6247005;22;20180;-83
2022/07/01 11:05:56;;;;;;;3.37;0.97;;;;;;;;;;6247879;22;20240;-82
2022/07/01 11:08:27;;;;;;;2.63;1.07;;;;;;;;;;6250793;22;20178;-86
2022/07/01 11:11:01;;;;;;;3.20;0.87;;;;;;;;;;6248975;22;20202;-85
2022/07/01 11:13:30;;;;;;;4.53;1.80;;;;;;;;;;6249619;22;20283;-84
2022/07/01 11:16:01;;;;;;;0.60;0.60;;;;;;;;;;6247129;22;20180;-82
2022/07/01 11:18:35;;;;;;;0.40;0.40;;;;;;;;;;6246731;22;20180;-86
2022/07/01 11:21:08;;;;;;;3.60;1.37;;;;;;;;;;6279096;22;20179;-88
2022/07/01 11:23:37;;;;;;;1.57;1.07;;;;;;;;;;6274678;22;20172;-81
2022/07/01 11:26:20;;;;;;;3.20;0.80;;;;;;;;;;6246651;22;20182;-83
2022/07/01 11:28:49;;;;;;;2.60;2.40;;;;;;;;;;6247311;22;20209;-83
2022/07/01 11:31:29;;;;;;;2.30;0.93;;;;;;;;;;6246752;22;20208;-84
2022/07/01 11:33:58;;;;;;;2.33;0.93;;;;;;;;;;6246449;22;20199;-84
2022/07/01 11:39:25;;;;;;;1.87;1.50;;;;;;;;;;6247693;22;20183;-85
2022/07/01 11:41:54;;;;;;;2.70;1.20;;;;;;;;;;6246360;22;20287;-85
2022/07/01 11:44:30;;;;;;;3.07;1.93;;;;;;;;;;6245444;22;20176;-86
2022/07/01 11:47:00;;;;;;;4.67;1.60;;;;;;;;;;6247799;22;20287;-86
2022/07/01 11:49:29;;;;;;;2.77;1.10;;;;;;;;;;6273878;22;20247;-85
2022/07/01 11:51:58;;;;;;;1.77;0.80;;;;;;;;;;6247150;22;20180;-86
2022/07/01 11:54:31;;;;;;;0.40;0.40;;;;;;;;;;6247514;22;20180;-84
2022/07/01 11:57:09;;;;;;;1.03;0.43;;;;;;;;;;6249161;22;20263;-86
2022/07/01 11:59:39;;;;;;;0.70;0.70;;;;;;;;;;6249558;22;20208;-84
2022/07/01 12:02:11;;;;;;;0.93;0.60;;;;;;;;;;6248265;22;20176;-83
2022/07/01 12:04:41;;;;;;;7.70;0.97;;;;;;;;;;6249328;22;20197;-83
2022/07/01 12:07:10;;;;;;;1.43;0.77;;;;;;;;;;6249027;22;20207;-84
2022/07/01 12:09:39;;;;;;;0.87;0.60;;;;;;;;;;6248127;22;20181;-83
2022/07/01 12:12:09;;;;;;;3.50;0.60;;;;;;;;;;6250737;22;20177;-83
2022/07/01 12:14:37;;;;;;;2.57;1.00;;;;;;;;;;6248864;22;20196;-83
2022/07/01 12:17:08;;;;;;;1.20;0.60;;;;;;;;;;6249470;22;20181;-83
2022/07/01 12:19:41;;;;;;;0.77;0.60;;;;;;;;;;6248968;22;20211;-82
2022/07/01 12:22:11;;;;;;;1.20;0.93;;;;;;;;;;6275354;22;20211;-84
2022/07/01 12:24:41;;;;;;;0.73;0.73;;;;;;;;;;6250316;22;20196;-83
2022/07/01 12:27:20;;;;;;;1.80;0.70;;;;;;;;;;6249506;22;20185;-84
2022/07/01 12:29:56;;;;;;;1.27;1.17;;;;;;;;;;6249414;22;20208;-84
2022/07/01 12:32:26;;;;;;;2.23;1.30;;;;;;;;;;6249304;22;20180;-84
2022/07/01 12:34:57;;;;;;;2.30;0.70;;;;;;;;;;6250795;22;20219;-80
2022/07/01 12:37:30;;;;;;;4.23;1.30;;;;;;;;;;6274261;22;20208;-84
2022/07/01 12:40:00;;;;;;;1.07;0.97;;;;;;;;;;6250918;22;20177;-84
2022/07/01 12:42:30;;;;;;;1.23;1.23;;;;;;;;;;6251717;22;20176;-84
2022/07/01 12:44:59;;;;;;;1.70;1.00;;;;;;;;;;6249152;22;20176;-83
2022/07/01 12:47:28;;;;;;;0.67;0.67;;;;;;;;;;6248603;22;20180;-85
2022/07/01 12:50:15;;;;;;;1.97;1.40;;;;;;;;;;6275548;22;20173;-85
2022/07/01 12:52:46;;;;;;;0.40;0.40;;;;;;;;;;6248852;22;20173;-84
2022/07/01 12:55:16;;;;;;;0.70;0.70;;;;;;;;;;6274230;22;20207;-85
2022/07/01 12:57:45;;;;;;;2.03;0.97;;;;;;;;;;6249104;22;20212;-84
2022/07/01 13:00:15;;;;;;;0.73;0.73;;;;;;;;;;6248400;22;20178;-84
2022/07/01 13:02:43;;;;;;;3.03;1.37;;;;;;;;;;6248216;22;20247;-84
2022/07/01 13:05:14;;;;;;;1.13;1.13;;;;;;;;;;6248080;22;20193;-85
2022/07/01 13:07:42;;;;;;;0.87;0.87;;;;;;;;;;6249088;22;20189;-85
2022/07/01 13:10:13;;;;;;;2.87;1.30;;;;;;;;;;6248746;22;20173;-83
2022/07/01 13:12:45;;;;;;;3.97;1.37;;;;;;;;;;6247757;22;20263;-84
2022/07/01 13:15:16;;;;;;;1.90;0.93;;;;;;;;;;6274627;22;20173;-84
2022/07/01 13:17:45;;;;;;;2.43;0.93;;;;;;;;;;6248536;22;20183;-85
2022/07/01 13:20:16;;;;;;;0.87;0.70;;;;;;;;;;6248712;22;20222;-84
2022/07/01 13:22:45;;;;;;;1.33;1.27;;;;;;;;;;6248405;22;20262;-84
2022/07/01 13:25:14;;;;;;;2.17;1.03;;;;;;;;;;6247895;22;20260;-84
2022/07/01 13:27:44;;;;;;;0.50;0.50;;;;;;;;;;6247778;22;20188;-84
2022/07/01 13:30:14;;;;;;;1.70;0.60;;;;;;;;;;6247917;22;20293;-83
2022/07/01 13:32:43;;;;;;;0.63;0.63;;;;;;;;;;6248565;22;20178;-83
2022/07/01 13:35:13;;;;;;;1.67;0.73;;;;;;;;;;6248877;22;20199;-83
2022/07/01 13:37:43;;;;;;;1.93;0.80;;;;;;;;;;6247053;22;20181;-84
2022/07/01 13:40:14;;;;;;;1.97;1.87;;;;;;;;;;6248461;22;20173;-83
2022/07/01 13:42:43;;;;;;;4.13;2.60;;;;;;;;;;6249619;22;20173;-84
2022/07/01 13:45:13;;;;;;;1.80;1.03;;;;;;;;;;6250043;22;20174;-84
2022/07/01 13:47:41;;;;;;;1.07;1.00;;;;;;;;;;6273873;22;20221;-83
2022/07/01 13:50:12;;;;;;;2.33;1.20;;;;;;;;;;6248978;22;20177;-83
2022/07/01 13:52:43;;;;;;;1.30;1.20;;;;;;;;;;6273341;22;20177;-83
2022/07/01 13:55:14;;;;;;;0.73;0.70;;;;;;;;;;6247354;22;20189;-82
2022/07/01 13:57:43;;;;;;;16.53;1.33;;;;;;;;;;6247381;22;20266;-84
2022/07/01 14:00:12;;;;;;;1.00;0.90;;;;;;;;;;6249489;22;20175;-84
2022/07/01 14:02:41;;;;;;;0.67;0.67;;;;;;;;;;6275406;22;20179;-84
2022/07/01 14:05:10;;;;;;;8.30;0.97;;;;;;;;;;6249623;22;20221;-86
2022/07/01 14:07:39;;;;;;;1.57;1.10;;;;;;;;;;6248394;22;20179;-84
2022/07/01 14:10:10;;;;;;;0.60;0.60;;;;;;;;;;6246792;22;20177;-82
2022/07/01 14:12:38;;;;;;;3.20;1.17;;;;;;;;;;6247309;22;20184;-84
2022/07/01 14:15:09;;;;;;;1.97;0.90;;;;;;;;;;6248397;22;20195;-82
2022/07/01 14:17:38;;;;;;;0.60;0.60;;;;;;;;;;6247984;22;20173;-83
2022/07/01 14:20:09;;;;;;;5.30;0.97;;;;;;;;;;6248058;22;20454;-84
2022/07/01 14:22:38;;;;;;;0.50;0.50;;;;;;;;;;6246957;22;20178;-82
2022/07/01 14:25:09;;;;;;;2.37;1.10;;;;;;;;;;6247346;22;20206;-85
2022/07/01 14:27:39;;;;;;;2.33;1.10;;;;;;;;;;6248134;22;20201;-86
2022/07/01 14:30:09;;;;;;;3.27;1.10;;;;;;;;;;6247678;22;20241;-84
2022/07/01 14:32:38;;;;;;;0.50;0.50;;;;;;;;;;6249433;22;20179;-85
2022/07/01 14:35:07;;;;;;;3.03;1.23;;;;;;;;;;6247057;22;20197;-85
2022/07/01 14:37:36;;;;;;;2.63;1.03;;;;;;;;;;6246392;22;20178;-85
2022/07/01 14:40:06;;;;;;;3.43;1.13;;;;;;;;;;6248146;22;20178;-86
2022/07/01 14:42:37;;;;;;;1.07;0.97;;;;;;;;;;6248912;22;20263;-86
2022/07/01 14:45:47;;;;;;;1.00;0.90;;;;;;;;;;6270607;22;20275;-86
2022/07/01 14:48:16;;;;;;;3.13;0.90;;;;;;;;;;6247962;22;20208;-85
2022/07/01 14:50:47;;;;;;;0.87;0.60;;;;;;;;;;6246697;22;20180;-85
2022/07/01 14:53:16;;;;;;;0.57;0.57;;;;;;;;;;6247811;22;20177;-85
2022/07/01 14:55:47;;;;;;;4.10;1.10;;;;;;;;;;6248203;22;20244;-86
2022/07/01 14:58:19;;;;;;;1.37;1.20;;;;;;;;;;6249829;22;20184;-87
2022/07/01 15:00:49;;;;;;;0.50;0.50;;;;;;;;;;6248896;22;20184;-85
2022/07/01 15:03:19;;;;;;;2.70;1.63;;;;;;;;;;6249211;22;20203;-84
2022/07/01 15:05:48;;;;;;;0.70;0.70;;;;;;;;;;6248614;22;20257;-85
2022/07/01 15:08:25;;;;;;;1.97;1.17;;;;;;;;;;6248454;22;20187;-86
2022/07/01 15:11:02;;;;;;;0.70;0.70;;;;;;;;;;6248633;22;20551;-85
2022/07/01 15:13:31;;;;;;;1.13;0.90;;;;;;;;;;6248545;22;20175;-83
2022/07/01 15:16:01;;;;;;;4.50;0.80;;;;;;;;;;6248323;22;20218;-84
2022/07/01 15:18:33;;;;;;;0.97;0.43;;;;;;;;;;6250108;22;20174;-87